Time;durP1;ratioP1;P1;durP2;ratioP2;P2;SDS_P1;SDS_P2;PMS_P1;PMS_P2;Temp;Humidity;BMP_temperature;BMP_pressure;BME280_temperature;BME280_humidity;BME280_pressure;Samples;Min_cycle;Max_cycle;Signal;HPM_P1;HPM_P2
2022/07/16 00:01:28;;;;;;;8.00;4.80;;;;;;;;;;4877133;29;20045;-74
2022/07/16 00:03:57;;;;;;;10.18;4.22;;;;;;;;;;4876399;29;20047;-74
2022/07/16 00:06:23;;;;;;;10.27;4.78;;;;;;;;;;4859985;29;20506;-74
2022/07/16 00:08:49;;;;;;;8.13;4.88;;;;;;;;;;4859347;29;20402;-74
2022/07/16 00:11:15;;;;;;;13.88;4.97;;;;;;;;;;4876398;29;20080;-73
2022/07/16 00:13:41;;;;;;;6.90;4.40;;;;;;;;;;4874824;29;20080;-74
2022/07/16 00:16:07;;;;;;;12.20;3.75;;;;;;;;;;4876370;29;20105;-75
2022/07/16 00:21:18;;;;;;;10.73;4.70;;;;;;;;;;4876250;29;20081;-73
2022/07/16 00:23:44;;;;;;;8.30;6.13;;;;;;;;;;4876199;29;20228;-75
2022/07/16 00:26:10;;;;;;;13.15;4.55;;;;;;;;;;4844655;29;20486;-74
2022/07/16 00:28:35;;;;;;;8.00;4.80;;;;;;;;;;4860838;29;20048;-73
2022/07/16 00:31:01;;;;;;;14.95;4.97;;;;;;;;;;4887110;29;20041;-74
2022/07/16 00:33:27;;;;;;;9.65;5.03;;;;;;;;;;4883349;29;20517;-74
2022/07/16 00:35:53;;;;;;;16.23;5.20;;;;;;;;;;4859718;29;20068;-74
2022/07/16 00:38:19;;;;;;;8.35;5.47;;;;;;;;;;4875953;29;20049;-74
2022/07/16 00:40:44;;;;;;;10.80;5.47;;;;;;;;;;4859377;29;20198;-75
2022/07/16 00:43:13;;;;;;;12.95;5.28;;;;;;;;;;4876143;29;20056;-74
2022/07/16 00:45:39;;;;;;;14.80;5.35;;;;;;;;;;4876097;29;20048;-75
2022/07/16 00:48:06;;;;;;;12.90;5.45;;;;;;;;;;4876002;29;20048;-73
2022/07/16 00:50:32;;;;;;;14.88;5.28;;;;;;;;;;4876178;29;20041;-74
2022/07/16 00:52:58;;;;;;;9.45;5.05;;;;;;;;;;4844712;29;20152;-73
2022/07/16 00:55:24;;;;;;;9.85;4.60;;;;;;;;;;4876676;29;20109;-73
2022/07/16 00:57:50;;;;;;;5.93;4.20;;;;;;;;;;4876331;29;20547;-73
2022/07/16 01:00:16;;;;;;;8.35;4.57;;;;;;;;;;4859471;29;20076;-74
2022/07/16 01:02:42;;;;;;;13.75;4.28;;;;;;;;;;4876181;29;20053;-74
2022/07/16 01:05:08;;;;;;;9.07;4.70;;;;;;;;;;4843777;29;20044;-72
2022/07/16 01:07:34;;;;;;;6.78;3.97;;;;;;;;;;4876051;29;20438;-73
2022/07/16 01:10:01;;;;;;;13.07;5.35;;;;;;;;;;4875640;29;20068;-73
2022/07/16 01:12:29;;;;;;;19.17;4.50;;;;;;;;;;4859083;29;20080;-74
2022/07/16 01:14:55;;;;;;;7.68;4.80;;;;;;;;;;4875448;29;20082;-74
2022/07/16 01:17:21;;;;;;;11.35;4.55;;;;;;;;;;4874595;29;20056;-74
2022/07/16 01:19:47;;;;;;;5.68;4.35;;;;;;;;;;4875344;29;20050;-74
2022/07/16 01:22:20;;;;;;;13.48;4.90;;;;;;;;;;4875803;29;20136;-74
2022/07/16 01:24:46;;;;;;;8.45;4.85;;;;;;;;;;4875473;29;20045;-73
2022/07/16 01:27:12;;;;;;;12.98;4.90;;;;;;;;;;4875787;29;20045;-75
2022/07/16 01:29:38;;;;;;;10.55;4.78;;;;;;;;;;4875443;29;20067;-74
2022/07/16 01:32:04;;;;;;;11.70;5.60;;;;;;;;;;4859132;29;20061;-73
2022/07/16 01:34:30;;;;;;;11.02;6.15;;;;;;;;;;4874358;29;20045;-74
2022/07/16 01:36:57;;;;;;;11.27;6.07;;;;;;;;;;4875444;29;20103;-74
2022/07/16 01:39:23;;;;;;;13.40;6.10;;;;;;;;;;4875518;29;20409;-74
2022/07/16 01:41:52;;;;;;;13.00;7.40;;;;;;;;;;4877459;29;20514;-74
2022/07/16 01:44:18;;;;;;;20.15;6.25;;;;;;;;;;4879011;29;20070;-73
2022/07/16 01:46:44;;;;;;;8.90;6.28;;;;;;;;;;4877470;29;20037;-74
2022/07/16 01:49:10;;;;;;;16.90;5.63;;;;;;;;;;4862911;29;20401;-74
2022/07/16 01:51:36;;;;;;;10.35;5.07;;;;;;;;;;4879357;29;20049;-74
2022/07/16 01:54:02;;;;;;;9.52;4.35;;;;;;;;;;4877333;29;20051;-74
2022/07/16 01:56:28;;;;;;;8.32;5.00;;;;;;;;;;4878512;29;20061;-75
2022/07/16 01:58:54;;;;;;;6.95;4.40;;;;;;;;;;4878434;29;20148;-75
2022/07/16 02:01:20;;;;;;;11.77;4.30;;;;;;;;;;4862106;29;20089;-74
2022/07/16 02:03:45;;;;;;;13.48;5.55;;;;;;;;;;4878267;29;20052;-73
2022/07/16 02:06:11;;;;;;;7.07;4.43;;;;;;;;;;4878744;29;20041;-75
2022/07/16 02:08:37;;;;;;;6.70;4.43;;;;;;;;;;4877350;29;20053;-74
2022/07/16 02:11:04;;;;;;;7.38;4.15;;;;;;;;;;4878548;29;20618;-75
2022/07/16 02:13:30;;;;;;;4.85;4.38;;;;;;;;;;4878106;29;20522;-75
2022/07/16 02:15:56;;;;;;;10.45;4.10;;;;;;;;;;4878197;29;20051;-74
2022/07/16 02:18:22;;;;;;;11.48;4.03;;;;;;;;;;4861953;29;20131;-74
2022/07/16 02:20:48;;;;;;;8.05;4.32;;;;;;;;;;4878873;29;20667;-75
2022/07/16 02:23:14;;;;;;;7.38;4.18;;;;;;;;;;4883595;29;20132;-73
2022/07/16 02:25:41;;;;;;;6.13;4.40;;;;;;;;;;4889592;29;20510;-74
2022/07/16 02:28:07;;;;;;;6.20;4.07;;;;;;;;;;4878748;29;20048;-75
2022/07/16 02:30:36;;;;;;;6.32;4.15;;;;;;;;;;4878279;29;20040;-75
2022/07/16 02:33:02;;;;;;;16.30;4.23;;;;;;;;;;4878947;29;20053;-76
2022/07/16 02:35:28;;;;;;;5.93;3.78;;;;;;;;;;4878512;29;20059;-73
2022/07/16 02:37:54;;;;;;;4.25;3.75;;;;;;;;;;4878573;29;20135;-75
2022/07/16 02:40:20;;;;;;;9.85;3.78;;;;;;;;;;4861669;29;20097;-74
2022/07/16 02:42:46;;;;;;;4.80;4.28;;;;;;;;;;4877827;29;20049;-74
2022/07/16 02:45:12;;;;;;;4.90;3.38;;;;;;;;;;4877743;29;20041;-75
2022/07/16 02:47:38;;;;;;;15.82;4.32;;;;;;;;;;4877787;29;20052;-74
2022/07/16 02:50:04;;;;;;;9.93;4.00;;;;;;;;;;4878307;29;20135;-75
2022/07/16 02:52:30;;;;;;;8.45;4.05;;;;;;;;;;4862449;29;20053;-75
2022/07/16 02:54:56;;;;;;;9.02;3.80;;;;;;;;;;4882840;29;20076;-76
2022/07/16 02:57:21;;;;;;;5.72;4.00;;;;;;;;;;4870075;29;20055;-77
2022/07/16 02:59:47;;;;;;;12.13;4.00;;;;;;;;;;4868587;29;20049;-77
2022/07/16 03:02:13;;;;;;;7.85;4.00;;;;;;;;;;4877787;29;20348;-77
2022/07/16 03:04:39;;;;;;;6.35;4.03;;;;;;;;;;4877574;29;20041;-77
2022/07/16 03:07:04;;;;;;;9.32;4.32;;;;;;;;;;4876288;29;20522;-76
2022/07/16 03:09:30;;;;;;;10.38;4.25;;;;;;;;;;4877381;29;20033;-77
2022/07/16 03:11:56;;;;;;;4.60;4.10;;;;;;;;;;4875792;29;20053;-77
2022/07/16 03:14:22;;;;;;;6.03;3.83;;;;;;;;;;4845159;29;20426;-77
2022/07/16 03:16:48;;;;;;;8.98;4.18;;;;;;;;;;4860391;29;20057;-78
2022/07/16 03:19:14;;;;;;;5.35;3.78;;;;;;;;;;4877373;29;20132;-77
2022/07/16 03:21:40;;;;;;;7.63;3.92;;;;;;;;;;4877130;29;20041;-77
2022/07/16 03:24:06;;;;;;;10.32;4.20;;;;;;;;;;4876901;29;20525;-77
2022/07/16 03:26:33;;;;;;;8.85;3.63;;;;;;;;;;4877121;29;20049;-76
2022/07/16 03:28:58;;;;;;;10.30;3.92;;;;;;;;;;4876768;29;20201;-75
2022/07/16 03:31:24;;;;;;;5.60;4.30;;;;;;;;;;4877146;29;20131;-76
2022/07/16 03:33:50;;;;;;;6.65;4.05;;;;;;;;;;4844483;29;20059;-75
2022/07/16 03:36:16;;;;;;;5.68;4.15;;;;;;;;;;4876892;29;20044;-76
2022/07/16 03:38:58;;;;;;;11.65;4.30;;;;;;;;;;4860216;29;20098;-77
2022/07/16 03:41:24;;;;;;;13.88;4.05;;;;;;;;;;4875645;29;20052;-76
2022/07/16 03:43:50;;;;;;;8.18;4.47;;;;;;;;;;4859811;29;20041;-76
2022/07/16 03:46:16;;;;;;;10.02;4.13;;;;;;;;;;4875569;29;20053;-75
2022/07/16 03:48:42;;;;;;;11.80;3.97;;;;;;;;;;4859828;29;20101;-75
2022/07/16 03:51:08;;;;;;;8.00;4.40;;;;;;;;;;4875077;29;20411;-75
2022/07/16 03:53:34;;;;;;;5.80;3.78;;;;;;;;;;4844348;29;20071;-76
2022/07/16 03:56:00;;;;;;;8.93;3.72;;;;;;;;;;4859662;29;20311;-75
2022/07/16 03:58:26;;;;;;;6.55;3.72;;;;;;;;;;4859800;29;20132;-76
2022/07/16 04:00:52;;;;;;;13.93;3.60;;;;;;;;;;4876298;29;20068;-76
2022/07/16 04:03:18;;;;;;;5.30;4.03;;;;;;;;;;4876111;29;20056;-76
2022/07/16 04:05:44;;;;;;;6.63;4.13;;;;;;;;;;4876448;29;20037;-76
2022/07/16 04:08:10;;;;;;;4.82;3.60;;;;;;;;;;4876387;29;20045;-76
2022/07/16 04:10:36;;;;;;;7.75;4.35;;;;;;;;;;4876369;29;20131;-76
2022/07/16 04:13:02;;;;;;;11.18;3.78;;;;;;;;;;4876901;29;20057;-76
2022/07/16 04:15:28;;;;;;;8.02;3.80;;;;;;;;;;4863798;29;20056;-76
2022/07/16 04:17:55;;;;;;;4.32;3.40;;;;;;;;;;4887271;29;20053;-76
2022/07/16 04:20:21;;;;;;;15.20;3.60;;;;;;;;;;4877916;29;20037;-76
2022/07/16 04:22:47;;;;;;;7.43;3.20;;;;;;;;;;4876523;29;20539;-75
2022/07/16 04:25:13;;;;;;;4.70;3.25;;;;;;;;;;4874170;29;20194;-76
2022/07/16 04:27:39;;;;;;;8.77;3.33;;;;;;;;;;4875431;29;20053;-76
2022/07/16 04:30:06;;;;;;;6.05;3.55;;;;;;;;;;4876020;29;20045;-76
2022/07/16 04:32:32;;;;;;;6.03;3.15;;;;;;;;;;4876041;29;20056;-76
2022/07/16 04:34:58;;;;;;;7.13;3.10;;;;;;;;;;4858974;29;20045;-76
2022/07/16 04:37:25;;;;;;;4.88;3.25;;;;;;;;;;4876183;29;20045;-76
2022/07/16 04:39:51;;;;;;;6.47;3.15;;;;;;;;;;4875749;29;20052;-76
2022/07/16 04:42:17;;;;;;;5.15;3.10;;;;;;;;;;4876244;29;20507;-76
2022/07/16 04:44:43;;;;;;;6.85;3.13;;;;;;;;;;4875934;29;20041;-76
2022/07/16 04:47:09;;;;;;;3.75;2.80;;;;;;;;;;4875935;29;20052;-76
2022/07/16 04:49:35;;;;;;;5.10;2.40;;;;;;;;;;4875814;29;20517;-76
2022/07/16 04:52:01;;;;;;;10.63;3.10;;;;;;;;;;4875819;29;20053;-76
2022/07/16 04:54:27;;;;;;;3.97;2.13;;;;;;;;;;4875989;29;20155;-76
2022/07/16 04:56:53;;;;;;;3.97;2.30;;;;;;;;;;4858810;29;20160;-76
2022/07/16 04:59:19;;;;;;;3.78;2.25;;;;;;;;;;4875868;29;20068;-76
2022/07/16 05:01:45;;;;;;;4.07;2.67;;;;;;;;;;4859150;29;20049;-76
2022/07/16 05:04:11;;;;;;;3.60;2.50;;;;;;;;;;4875475;29;20044;-76
2022/07/16 05:06:37;;;;;;;4.75;2.20;;;;;;;;;;4875849;29;20075;-76
2022/07/16 05:09:03;;;;;;;5.97;2.47;;;;;;;;;;4843679;29;20049;-76
2022/07/16 05:11:29;;;;;;;2.35;2.15;;;;;;;;;;4859145;29;20048;-76
2022/07/16 05:13:55;;;;;;;2.35;1.95;;;;;;;;;;4875610;29;20695;-76
2022/07/16 05:16:22;;;;;;;2.70;1.95;;;;;;;;;;4877364;29;20048;-76
2022/07/16 05:18:48;;;;;;;4.00;1.83;;;;;;;;;;4879279;29;20141;-76
2022/07/16 05:21:14;;;;;;;7.30;2.20;;;;;;;;;;4879031;29;20048;-76
2022/07/16 05:23:39;;;;;;;5.63;2.08;;;;;;;;;;4862628;29;20053;-77
2022/07/16 05:26:05;;;;;;;4.22;1.70;;;;;;;;;;4878789;29;20041;-76
2022/07/16 05:28:31;;;;;;;3.35;1.83;;;;;;;;;;4879105;29;20596;-76
2022/07/16 05:30:57;;;;;;;3.80;2.00;;;;;;;;;;4879045;29;20097;-76
2022/07/16 05:33:23;;;;;;;1.90;1.65;;;;;;;;;;4863177;29;20151;-76
2022/07/16 05:35:49;;;;;;;2.20;1.65;;;;;;;;;;4879124;29;20037;-76
2022/07/16 05:38:15;;;;;;;3.83;1.92;;;;;;;;;;4877696;29;20143;-76
2022/07/16 05:40:41;;;;;;;4.43;2.25;;;;;;;;;;4862154;29;20225;-76
2022/07/16 05:43:07;;;;;;;2.15;1.70;;;;;;;;;;4877555;29;20053;-77
2022/07/16 05:45:32;;;;;;;4.03;2.30;;;;;;;;;;4862080;29;20052;-76
2022/07/16 05:47:58;;;;;;;5.03;2.20;;;;;;;;;;4878697;29;20051;-77
2022/07/16 05:50:24;;;;;;;2.03;1.65;;;;;;;;;;4878869;29;20051;-76
2022/07/16 05:52:51;;;;;;;4.35;2.33;;;;;;;;;;4862727;29;20060;-77
2022/07/16 05:55:17;;;;;;;4.25;2.08;;;;;;;;;;4861650;29;20078;-77
2022/07/16 05:57:42;;;;;;;3.35;2.78;;;;;;;;;;4862158;29;20525;-78
2022/07/16 06:00:10;;;;;;;8.35;3.08;;;;;;;;;;4878282;29;20056;-77
2022/07/16 06:02:42;;;;;;;10.77;2.58;;;;;;;;;;4880013;29;20052;-78
2022/07/16 06:05:08;;;;;;;4.65;3.15;;;;;;;;;;4864263;29;20045;-76
2022/07/16 06:07:34;;;;;;;5.43;2.70;;;;;;;;;;4866674;29;20194;-78
2022/07/16 06:10:00;;;;;;;4.35;2.92;;;;;;;;;;4885062;29;20044;-77
2022/07/16 06:12:26;;;;;;;4.57;2.22;;;;;;;;;;4853656;29;20053;-78
2022/07/16 06:14:52;;;;;;;8.25;2.70;;;;;;;;;;4878838;29;20045;-78
2022/07/16 06:17:18;;;;;;;5.78;2.00;;;;;;;;;;4878913;29;20045;-78
2022/07/16 06:19:44;;;;;;;2.80;1.77;;;;;;;;;;4878357;29;20045;-79
2022/07/16 06:22:10;;;;;;;4.03;1.90;;;;;;;;;;4877940;29;20100;-78
2022/07/16 06:24:36;;;;;;;4.45;2.10;;;;;;;;;;4861335;29;20037;-78
2022/07/16 06:27:03;;;;;;;5.03;2.30;;;;;;;;;;4877389;29;20053;-78
2022/07/16 06:29:29;;;;;;;3.15;1.98;;;;;;;;;;4877908;29;20049;-78
2022/07/16 06:31:55;;;;;;;6.13;2.10;;;;;;;;;;4877740;29;20273;-80
2022/07/16 06:34:21;;;;;;;3.92;2.00;;;;;;;;;;4845975;29;20044;-78
2022/07/16 06:36:47;;;;;;;1.92;1.83;;;;;;;;;;4877903;29;20072;-78
2022/07/16 06:39:13;;;;;;;1.83;1.60;;;;;;;;;;4845573;29;20109;-78
2022/07/16 06:41:39;;;;;;;2.25;1.73;;;;;;;;;;4846002;29;20052;-78
2022/07/16 06:44:06;;;;;;;1.75;1.35;;;;;;;;;;4877637;29;20049;-78
2022/07/16 06:46:32;;;;;;;7.03;2.00;;;;;;;;;;4877964;29;20052;-78
2022/07/16 06:48:58;;;;;;;2.85;1.83;;;;;;;;;;4861244;29;20052;-79
2022/07/16 06:51:24;;;;;;;2.35;1.60;;;;;;;;;;4861134;29;20049;-78
2022/07/16 06:53:50;;;;;;;2.33;1.90;;;;;;;;;;4877741;29;20055;-78
2022/07/16 06:56:16;;;;;;;2.72;1.60;;;;;;;;;;4877138;29;20589;-78
2022/07/16 06:58:42;;;;;;;1.40;1.30;;;;;;;;;;4876460;29;20541;-78
2022/07/16 07:01:08;;;;;;;3.72;1.98;;;;;;;;;;4860660;29;20609;-78
2022/07/16 07:03:34;;;;;;;3.45;1.92;;;;;;;;;;4877649;29;20049;-78
2022/07/16 07:06:00;;;;;;;2.45;2.03;;;;;;;;;;4860671;29;20076;-78
2022/07/16 07:08:26;;;;;;;3.63;1.80;;;;;;;;;;4845451;29;20429;-78
2022/07/16 07:10:52;;;;;;;1.83;1.70;;;;;;;;;;4860750;29;20115;-78
2022/07/16 07:13:18;;;;;;;6.32;1.85;;;;;;;;;;4860527;29;20135;-76
2022/07/16 07:15:44;;;;;;;2.90;1.75;;;;;;;;;;4857237;29;20140;-78
2022/07/16 07:18:11;;;;;;;5.05;2.03;;;;;;;;;;4859116;29;20399;-78
2022/07/16 07:20:36;;;;;;;2.13;1.90;;;;;;;;;;4876522;29;20067;-78
2022/07/16 07:23:02;;;;;;;3.33;1.70;;;;;;;;;;4877031;29;20049;-79
2022/07/16 07:25:29;;;;;;;1.95;1.77;;;;;;;;;;4860359;29;20143;-78
2022/07/16 07:27:55;;;;;;;3.03;1.80;;;;;;;;;;4877128;29;20052;-78
2022/07/16 07:30:21;;;;;;;6.28;2.15;;;;;;;;;;4860209;29;20045;-78
2022/07/16 07:32:47;;;;;;;3.20;1.75;;;;;;;;;;4877063;29;20061;-79
2022/07/16 07:35:13;;;;;;;2.45;1.80;;;;;;;;;;4860099;29;20495;-78
2022/07/16 07:37:39;;;;;;;2.45;1.50;;;;;;;;;;4876909;29;20037;-78
2022/07/16 07:40:05;;;;;;;2.85;1.88;;;;;;;;;;4859405;29;20533;-78
2022/07/16 07:42:31;;;;;;;5.88;1.77;;;;;;;;;;4876726;29;20056;-79
2022/07/16 07:44:57;;;;;;;4.07;1.50;;;;;;;;;;4859909;29;20048;-78
2022/07/16 07:47:23;;;;;;;5.72;1.50;;;;;;;;;;4860059;29;20052;-78
2022/07/16 07:49:50;;;;;;;2.17;1.55;;;;;;;;;;4876649;29;20041;-78
2022/07/16 07:52:16;;;;;;;3.60;1.70;;;;;;;;;;4859928;29;20549;-78
2022/07/16 07:54:42;;;;;;;2.88;1.50;;;;;;;;;;4876449;29;20045;-78
2022/07/16 07:57:08;;;;;;;1.60;1.50;;;;;;;;;;4859936;29;20057;-79
2022/07/16 07:59:34;;;;;;;2.90;1.50;;;;;;;;;;4876929;29;20144;-79
2022/07/16 08:02:00;;;;;;;1.63;1.40;;;;;;;;;;4881334;29;20079;-80
2022/07/16 08:04:26;;;;;;;2.95;1.65;;;;;;;;;;4851277;29;20045;-78
2022/07/16 08:06:52;;;;;;;2.92;1.50;;;;;;;;;;4878374;29;20045;-79
2022/07/16 08:09:18;;;;;;;1.85;1.50;;;;;;;;;;4876642;29;20040;-79
2022/07/16 08:11:44;;;;;;;2.30;1.42;;;;;;;;;;4876427;29;20097;-78
2022/07/16 08:14:10;;;;;;;2.70;2.05;;;;;;;;;;4859416;29;20049;-78
2022/07/16 08:16:37;;;;;;;3.22;1.63;;;;;;;;;;4876297;29;20049;-78
2022/07/16 08:19:03;;;;;;;2.28;1.60;;;;;;;;;;4859625;29;20210;-78
2022/07/16 08:21:28;;;;;;;1.85;1.60;;;;;;;;;;4876045;29;20398;-77
2022/07/16 08:26:39;;;;;;;1.63;1.25;;;;;;;;;;4876250;29;20135;-78
2022/07/16 08:29:05;;;;;;;3.53;1.20;;;;;;;;;;4859322;29;20135;-78
2022/07/16 08:31:30;;;;;;;5.90;1.50;;;;;;;;;;4877967;29;20439;-78
2022/07/16 08:33:56;;;;;;;1.77;1.30;;;;;;;;;;4846271;29;20540;-78
2022/07/16 08:36:23;;;;;;;2.50;1.50;;;;;;;;;;4877504;29;20052;-77
2022/07/16 08:38:48;;;;;;;3.63;1.70;;;;;;;;;;4860874;29;20053;-77
2022/07/16 08:41:14;;;;;;;3.90;2.15;;;;;;;;;;4876349;29;20052;-77
2022/07/16 08:43:40;;;;;;;3.63;1.80;;;;;;;;;;4876059;29;20132;-78
2022/07/16 08:46:07;;;;;;;1.58;1.48;;;;;;;;;;4875930;29;20414;-78
2022/07/16 08:48:33;;;;;;;5.07;1.70;;;;;;;;;;4876014;29;20044;-78
2022/07/16 08:50:58;;;;;;;3.50;1.50;;;;;;;;;;4861522;29;20403;-77
2022/07/16 08:53:24;;;;;;;3.15;1.42;;;;;;;;;;4862941;29;20049;-78
2022/07/16 08:55:54;;;;;;;1.63;1.27;;;;;;;;;;4847429;29;20065;-78
2022/07/16 08:58:20;;;;;;;2.70;1.67;;;;;;;;;;4878358;29;20109;-78
2022/07/16 09:00:46;;;;;;;3.45;1.60;;;;;;;;;;4879897;29;20037;-78
2022/07/16 09:03:14;;;;;;;7.13;1.58;;;;;;;;;;4878310;29;20087;-77
2022/07/16 09:05:41;;;;;;;1.60;1.50;;;;;;;;;;4879868;29;20048;-77
2022/07/16 09:08:07;;;;;;;4.57;1.83;;;;;;;;;;4880299;29;20057;-77
2022/07/16 09:10:37;;;;;;;3.03;1.60;;;;;;;;;;4866595;29;20036;-78
2022/07/16 09:13:03;;;;;;;1.60;1.50;;;;;;;;;;4883949;29;20052;-78
2022/07/16 09:15:32;;;;;;;2.92;1.35;;;;;;;;;;4882749;29;20407;-77
2022/07/16 09:18:05;;;;;;;3.08;2.00;;;;;;;;;;4863415;29;20534;-78
2022/07/16 09:20:31;;;;;;;3.20;1.20;;;;;;;;;;4879582;29;20037;-77
2022/07/16 09:22:57;;;;;;;2.35;1.60;;;;;;;;;;4879834;29;20507;-78
2022/07/16 09:25:23;;;;;;;2.38;1.30;;;;;;;;;;4879046;29;20107;-77
2022/07/16 09:27:58;;;;;;;1.98;1.58;;;;;;;;;;4879480;29;20190;-78
2022/07/16 09:30:24;;;;;;;1.83;1.65;;;;;;;;;;4879020;29;20499;-75
2022/07/16 09:32:50;;;;;;;3.50;1.60;;;;;;;;;;4879464;29;20061;-74
2022/07/16 09:35:16;;;;;;;3.38;1.45;;;;;;;;;;4877759;29;20048;-74
2022/07/16 09:37:45;;;;;;;4.35;1.45;;;;;;;;;;4877750;29;20136;-74
2022/07/16 09:40:11;;;;;;;2.90;1.50;;;;;;;;;;4878750;29;20060;-75
2022/07/16 09:42:38;;;;;;;1.17;1.13;;;;;;;;;;4846805;29;20490;-74
2022/07/16 09:45:04;;;;;;;3.25;1.55;;;;;;;;;;4879042;29;20052;-74
2022/07/16 09:47:30;;;;;;;1.67;1.35;;;;;;;;;;4862064;29;20049;-75
2022/07/16 09:49:56;;;;;;;1.42;1.27;;;;;;;;;;4864586;29;20045;-73
2022/07/16 09:52:27;;;;;;;1.65;1.38;;;;;;;;;;4879804;29;20068;-75
2022/07/16 09:54:56;;;;;;;2.05;1.30;;;;;;;;;;4863302;29;20047;-76
2022/07/16 09:57:22;;;;;;;1.70;1.60;;;;;;;;;;4869169;29;20052;-76
2022/07/16 09:59:48;;;;;;;1.30;1.20;;;;;;;;;;4879196;29;20101;-75
2022/07/16 10:02:13;;;;;;;2.30;1.60;;;;;;;;;;4861205;29;20107;-75
2022/07/16 10:04:40;;;;;;;1.85;1.58;;;;;;;;;;4862200;29;20041;-75
2022/07/16 10:07:06;;;;;;;1.75;1.55;;;;;;;;;;4878617;29;20127;-75
2022/07/16 10:09:32;;;;;;;4.20;1.63;;;;;;;;;;4878248;29;20132;-75
2022/07/16 10:12:01;;;;;;;5.15;1.65;;;;;;;;;;4878360;29;20051;-76
2022/07/16 10:14:27;;;;;;;2.95;1.92;;;;;;;;;;4861664;29;20495;-76
2022/07/16 10:16:56;;;;;;;2.83;1.70;;;;;;;;;;4876746;29;20076;-75
2022/07/16 10:19:22;;;;;;;1.92;1.75;;;;;;;;;;4861499;29;20081;-75
2022/07/16 10:22:07;;;;;;;1.88;1.38;;;;;;;;;;4878272;29;20104;-76
2022/07/16 10:24:55;;;;;;;1.45;1.30;;;;;;;;;;4878044;29;20597;-76
2022/07/16 10:27:24;;;;;;;3.55;1.50;;;;;;;;;;4845768;29;20045;-74
2022/07/16 10:29:50;;;;;;;2.15;1.30;;;;;;;;;;4877914;29;20597;-74
2022/07/16 10:32:28;;;;;;;2.88;1.42;;;;;;;;;;4860977;29;20088;-72
2022/07/16 10:34:54;;;;;;;1.77;1.38;;;;;;;;;;4877967;29;20045;-74
2022/07/16 10:37:30;;;;;;;1.55;1.45;;;;;;;;;;4876531;29;20131;-75
2022/07/16 10:40:03;;;;;;;2.75;1.35;;;;;;;;;;4861324;29;20045;-76
2022/07/16 10:42:29;;;;;;;2.85;1.20;;;;;;;;;;4861114;29;20053;-75
2022/07/16 10:44:55;;;;;;;1.80;1.70;;;;;;;;;;4877806;29;20055;-74
2022/07/16 10:47:21;;;;;;;2.85;1.55;;;;;;;;;;4861043;29;20425;-76
2022/07/16 10:49:47;;;;;;;1.48;1.38;;;;;;;;;;4876735;29;20053;-74
2022/07/16 10:52:14;;;;;;;2.88;1.67;;;;;;;;;;4875966;29;20061;-75
2022/07/16 10:54:40;;;;;;;5.32;1.58;;;;;;;;;;4871073;29;20352;-74
2022/07/16 10:57:09;;;;;;;1.88;1.52;;;;;;;;;;4841257;29;20087;-75
2022/07/16 10:59:36;;;;;;;1.58;1.55;;;;;;;;;;4857447;29;20117;-74
2022/07/16 11:02:03;;;;;;;1.60;1.50;;;;;;;;;;4858437;29;20580;-74
2022/07/16 11:04:31;;;;;;;1.52;1.42;;;;;;;;;;4858804;29;20052;-74
2022/07/16 11:06:57;;;;;;;2.08;1.75;;;;;;;;;;4858807;29;20045;-73
2022/07/16 11:09:23;;;;;;;2.38;1.55;;;;;;;;;;4858842;29;20042;-76
2022/07/16 11:11:49;;;;;;;2.42;1.60;;;;;;;;;;4859017;29;20049;-74
2022/07/16 11:14:15;;;;;;;2.25;1.50;;;;;;;;;;4858684;29;20042;-75
2022/07/16 11:16:50;;;;;;;1.25;1.25;;;;;;;;;;4859012;29;20064;-75
2022/07/16 11:19:16;;;;;;;1.92;1.60;;;;;;;;;;4859275;29;20496;-74
2022/07/16 11:22:03;;;;;;;1.60;1.50;;;;;;;;;;4859319;29;20497;-74
2022/07/16 11:24:29;;;;;;;1.45;1.35;;;;;;;;;;4860161;29;20042;-76
2022/07/16 11:26:55;;;;;;;2.10;1.58;;;;;;;;;;4859498;29;20057;-75
2022/07/16 11:29:22;;;;;;;1.73;1.48;;;;;;;;;;4858938;29;20041;-76
2022/07/16 11:31:48;;;;;;;7.45;1.50;;;;;;;;;;4844344;29;20054;-76
2022/07/16 11:34:14;;;;;;;3.55;1.48;;;;;;;;;;4860453;29;20059;-75
2022/07/16 11:36:41;;;;;;;3.95;1.40;;;;;;;;;;4874141;29;20049;-74
2022/07/16 11:39:08;;;;;;;1.63;1.45;;;;;;;;;;4860697;29;20094;-76
2022/07/16 11:41:35;;;;;;;1.83;1.73;;;;;;;;;;4874549;29;20045;-74
2022/07/16 11:44:11;;;;;;;1.98;1.70;;;;;;;;;;4860029;29;20459;-76
2022/07/16 11:46:47;;;;;;;1.63;1.50;;;;;;;;;;4856931;29;20065;-75
2022/07/16 11:49:20;;;;;;;1.77;1.30;;;;;;;;;;4865399;29;20045;-74
2022/07/16 11:51:46;;;;;;;1.65;1.52;;;;;;;;;;4876407;29;20049;-75
2022/07/16 11:54:12;;;;;;;6.95;1.42;;;;;;;;;;4860876;29;20146;-75
2022/07/16 11:56:38;;;;;;;4.00;1.40;;;;;;;;;;4858824;29;20122;-72
2022/07/16 11:59:14;;;;;;;1.10;1.10;;;;;;;;;;4860856;29;20133;-74
2022/07/16 12:01:40;;;;;;;2.97;1.58;;;;;;;;;;4843796;29;20094;-74
2022/07/16 12:04:06;;;;;;;2.22;1.30;;;;;;;;;;4861337;29;20053;-73
2022/07/16 12:06:32;;;;;;;1.40;1.30;;;;;;;;;;4860572;29;20670;-75
2022/07/16 12:08:58;;;;;;;3.03;1.50;;;;;;;;;;4859586;29;20096;-73
2022/07/16 12:11:35;;;;;;;1.40;1.30;;;;;;;;;;4861479;29;20116;-74
2022/07/16 12:14:02;;;;;;;1.35;1.25;;;;;;;;;;4846829;29;20086;-74
2022/07/16 12:16:28;;;;;;;2.83;1.48;;;;;;;;;;4861962;29;20085;-75
2022/07/16 12:19:00;;;;;;;3.67;1.60;;;;;;;;;;4859945;29;20080;-74
2022/07/16 12:21:30;;;;;;;5.63;1.42;;;;;;;;;;4860438;29;20124;-73
2022/07/16 12:23:55;;;;;;;1.45;1.30;;;;;;;;;;4860421;29;20181;-74
2022/07/16 12:26:29;;;;;;;1.83;1.38;;;;;;;;;;4859329;29;20049;-75
2022/07/16 12:28:55;;;;;;;3.65;1.35;;;;;;;;;;4860565;29;20063;-75
2022/07/16 12:31:21;;;;;;;1.60;1.15;;;;;;;;;;4859499;29;20570;-74
2022/07/16 12:33:51;;;;;;;1.20;1.10;;;;;;;;;;4874538;29;20061;-73
2022/07/16 12:36:18;;;;;;;1.00;1.00;;;;;;;;;;4858752;29;20044;-74
2022/07/16 12:38:49;;;;;;;1.45;1.35;;;;;;;;;;4858890;29;20057;-74
2022/07/16 12:41:15;;;;;;;1.10;1.10;;;;;;;;;;4860000;29;20052;-74
2022/07/16 12:43:42;;;;;;;1.30;1.20;;;;;;;;;;4860209;29;20071;-75
2022/07/16 12:46:08;;;;;;;1.02;1.02;;;;;;;;;;4859528;29;20132;-75
2022/07/16 12:48:40;;;;;;;1.50;1.40;;;;;;;;;;4859430;29;20537;-75
2022/07/16 12:51:06;;;;;;;1.80;1.60;;;;;;;;;;4843387;29;20149;-74
2022/07/16 12:53:32;;;;;;;2.05;1.40;;;;;;;;;;4859433;29;20052;-75
2022/07/16 12:58:49;;;;;;;1.60;1.50;;;;;;;;;;4859817;29;20055;-73
2022/07/16 13:01:15;;;;;;;2.40;1.40;;;;;;;;;;4859008;29;20414;-75
2022/07/16 13:03:42;;;;;;;1.73;1.60;;;;;;;;;;4859144;29;20132;-74
2022/07/16 13:06:08;;;;;;;3.30;1.70;;;;;;;;;;4842624;29;20081;-74
2022/07/16 13:08:36;;;;;;;2.47;1.88;;;;;;;;;;4859606;29;20069;-75
2022/07/16 13:11:02;;;;;;;1.88;1.70;;;;;;;;;;4859198;29;20056;-75
2022/07/16 13:13:28;;;;;;;4.68;2.05;;;;;;;;;;4873692;29;20057;-75
2022/07/16 13:15:54;;;;;;;3.47;1.80;;;;;;;;;;4859622;29;20080;-75
2022/07/16 13:18:20;;;;;;;1.55;1.45;;;;;;;;;;4859184;29;20104;-75
2022/07/16 13:20:47;;;;;;;1.45;1.42;;;;;;;;;;4858345;29;20041;-73
2022/07/16 13:23:13;;;;;;;2.33;1.80;;;;;;;;;;4859304;29;20042;-74
2022/07/16 13:25:39;;;;;;;2.10;1.95;;;;;;;;;;4857501;29;20167;-74
2022/07/16 13:28:05;;;;;;;2.25;1.70;;;;;;;;;;4859150;29;20132;-74
2022/07/16 13:30:31;;;;;;;1.83;1.58;;;;;;;;;;4842004;29;20105;-75
2022/07/16 13:32:57;;;;;;;1.80;1.45;;;;;;;;;;4859493;29;20072;-72
2022/07/16 13:35:23;;;;;;;1.63;1.52;;;;;;;;;;4857574;29;20041;-74
2022/07/16 13:37:49;;;;;;;1.77;1.67;;;;;;;;;;4860982;29;20061;-74
2022/07/16 13:40:15;;;;;;;4.00;1.50;;;;;;;;;;4883880;29;20052;-73
2022/07/16 13:42:41;;;;;;;2.83;2.00;;;;;;;;;;4863265;29;20060;-74
2022/07/16 13:45:08;;;;;;;3.05;1.75;;;;;;;;;;4862168;29;20041;-75
2022/07/16 13:47:36;;;;;;;2.40;1.77;;;;;;;;;;4861715;29;20045;-75
2022/07/16 13:50:01;;;;;;;1.60;1.38;;;;;;;;;;4875992;29;20071;-75
2022/07/16 13:52:28;;;;;;;1.95;1.85;;;;;;;;;;4861796;29;20106;-75
2022/07/16 13:54:54;;;;;;;1.80;1.30;;;;;;;;;;4860472;29;20045;-77
2022/07/16 14:00:05;;;;;;;1.90;1.65;;;;;;;;;;4862540;29;20561;-74
2022/07/16 14:02:37;;;;;;;6.13;1.95;;;;;;;;;;4861608;29;20049;-74
2022/07/16 14:05:03;;;;;;;4.55;1.88;;;;;;;;;;4861789;29;20045;-74
2022/07/16 14:07:29;;;;;;;2.13;1.60;;;;;;;;;;4845284;29;20440;-73
2022/07/16 14:09:55;;;;;;;1.50;1.40;;;;;;;;;;4861667;29;20050;-74
2022/07/16 14:12:21;;;;;;;1.67;1.48;;;;;;;;;;4861577;29;20060;-73
2022/07/16 14:14:47;;;;;;;1.55;1.50;;;;;;;;;;4845199;29;20041;-75
2022/07/16 14:17:15;;;;;;;1.60;1.50;;;;;;;;;;4876167;29;20132;-75
2022/07/16 14:19:41;;;;;;;2.03;1.52;;;;;;;;;;4861443;29;20037;-74
2022/07/16 14:22:07;;;;;;;3.00;1.80;;;;;;;;;;4862353;29;20128;-75
2022/07/16 14:24:33;;;;;;;1.77;1.67;;;;;;;;;;4861590;29;20326;-75
2022/07/16 14:26:59;;;;;;;5.03;2.05;;;;;;;;;;4860462;29;20085;-75
2022/07/16 14:29:25;;;;;;;1.60;1.50;;;;;;;;;;4875658;29;20144;-74
2022/07/16 14:31:51;;;;;;;2.80;1.60;;;;;;;;;;4860077;29;20088;-74
2022/07/16 14:34:17;;;;;;;1.35;1.35;;;;;;;;;;4861484;29;20117;-74
2022/07/16 14:36:43;;;;;;;1.90;1.80;;;;;;;;;;4861259;29;20034;-73
2022/07/16 14:39:09;;;;;;;2.03;1.80;;;;;;;;;;4861165;29;20053;-76
2022/07/16 14:41:34;;;;;;;1.90;1.70;;;;;;;;;;4875102;29;20114;-77
2022/07/16 14:44:00;;;;;;;1.90;1.80;;;;;;;;;;4859031;29;20056;-75
2022/07/16 14:46:26;;;;;;;2.25;1.70;;;;;;;;;;4860090;29;20049;-74
2022/07/16 14:48:52;;;;;;;3.90;1.80;;;;;;;;;;4860118;29;20057;-76